Cheshire, CT (06408)

10:13 AM EST on January 17, 2018 (GMT -0500)
Park Place X Taylor Ave | | Change Station
Active Advisory: Winter Weather Advisory Active Notice: Public Information Statement

Elev 238 ft 41.51 °N, 72.91 °W | Updated 20 seconds ago

Light Snow
Light Snow Mist
34.0 °F
Feels Like 34 °F
N
0.0
Wind Variable Wind from WNW

Today
High -- | Low -- °F
--% Chance of Precip.
Yesterday
High -- | Low -- °F
Precip. -- in
Pressure 30.25 in
Visibility 3.0 miles
Clouds Overcast 1000 ft
Windchill 34 °F
Dew Point 30 °F
Humidity 88%
Rainfall 0.00 in
Snow Depth Not available.
7:14 AM 4:49 PM
New Moon, 0% visible
SPECI KMMK 171503Z AUTO 01004KT 3SM -SN BR OVC010 00/M01 A3025 RMK AO2 P0000 T00001011
Pressure 30.25 in
Visibility 3.0 miles
Clouds Overcast 1000 ft
Windchill 34 °F
Dew Point 30 °F
Humidity 88%
Rainfall 0.00 in
Snow Depth Not available.
7:14 AM 4:49 PM
New Moon, 0% visible
SPECI KMMK 171503Z AUTO 01004KT 3SM -SN BR OVC010 00/M01 A3025 RMK AO2 P0000 T00001011

Get Your Daily Forecast Email!

Thanks for signing up!

Be on the lookout for a verification email in your inbox.

You'll start receiving severe weather alerts in your inbox..

×

10-Day Weather Forecast

Almanac

Astronomy

Jan. 17, 2018 Rise Set
Actual Time
Civil Twilight
Nautical Twilight
Astronomical Twilight
Moon
Length of Visible Light
Length of Day
Tomorrow will be .
, % of the Moon is Illuminated

Today's Extremes

State Highs State Lows

Community

WunderPhotos

Category 6

Welcome to Category 6. This is the collective home for Weather Underground's featured writeups by Dr. Jeff Masters (right), Bob Henson (left), Chris Burt, and other regular contributors.

Nearby

Air Quality

  Air Quality AQ Index Pollutant
Not available.

Snow Depth

Station Depth Elevation

Earthquake Activity

City Distance Mag. Time & Date
Minimum magnitude displayed is 2.5.

Coastal Water Temperatures

Place Temperature

Stations

Nearby Weather Stations

Station Location Temp. Windchill Dew Point Humidity Wind Precip. Elev Updated Type
                   

Watches & Warnings

Winter Weather Advisory
Issued: 7:53 AM EST Jan. 17, 2018 – National Weather Service

... Winter Weather Advisory remains in effect until 1 PM EST this
afternoon...

* what... snow occurring. Plan on slippery Road conditions,
including during the morning commute. Additional snow
accumulations of up to two inches are expected.

* Where... northern Fairfield, northern New Haven, northern
Middlesex and northern New London counties.

* When... until 1 PM EST this afternoon.

* Additional details... be prepared for reduced visibilities at
times.

Precautionary/preparedness actions...

A Winter Weather Advisory for snow means periods of snow will
cause primarily travel difficulties. Be prepared for snow covered
roads and limited visibilities, and use caution while driving.
The latest Road conditions for the state you are calling from can
be obtained by calling 5 1 1.